Time;durP1;ratioP1;P1;durP2;ratioP2;P2;SDS_P1;SDS_P2;PMS_P1;PMS_P2;Temp;Humidity;BMP_temperature;BMP_pressure;BME280_temperature;BME280_humidity;BME280_pressure;Samples;Min_cycle;Max_cycle;Signal;HPM_P1;HPM_P2
2022/08/26 00:01:05;;;;;;;10.35;5.50;;;;;;;22.62;71.13;100499.94;2094680;28;20059;-75
2022/08/26 00:02:28;;;;;;;8.73;5.45;;;;;;;22.64;71.00;100501.63;2095006;28;20149;-74
2022/08/26 00:03:51;;;;;;;8.13;5.07;;;;;;;22.65;71.03;100506.06;2094712;28;20090;-74
2022/08/26 00:05:14;;;;;;;9.40;6.30;;;;;;;22.63;71.05;100499.00;2094672;28;20096;-74
2022/08/26 00:06:37;;;;;;;9.98;5.75;;;;;;;22.64;70.91;100508.84;2095004;28;20445;-75
2022/08/26 00:08:00;;;;;;;8.48;5.47;;;;;;;22.62;71.04;100500.81;2094539;28;20106;-74
2022/08/26 00:09:22;;;;;;;8.98;5.32;;;;;;;22.62;70.95;100495.44;2096557;28;20587;-74
2022/08/26 00:10:45;;;;;;;9.18;5.40;;;;;;;22.61;70.79;100488.28;2094255;28;20051;-74
2022/08/26 00:12:08;;;;;;;8.40;5.55;;;;;;;22.61;70.93;100493.69;2094776;28;20173;-74
2022/08/26 00:13:31;;;;;;;11.13;5.47;;;;;;;22.61;70.96;100490.09;2094859;28;20045;-74
2022/08/26 00:14:53;;;;;;;9.20;5.15;;;;;;;22.58;71.13;100490.19;2098734;28;20118;-75
2022/08/26 00:16:16;;;;;;;10.50;5.32;;;;;;;22.55;71.45;100493.03;2094661;28;20064;-75
2022/08/26 00:17:42;;;;;;;10.05;5.72;;;;;;;22.53;71.43;100492.19;2095174;28;20555;-75
2022/08/26 00:19:06;;;;;;;11.05;5.20;;;;;;;22.51;71.53;100491.41;2105726;28;20048;-75
2022/08/26 00:20:31;;;;;;;10.43;5.63;;;;;;;22.49;71.64;100490.56;2097096;28;20513;-75
2022/08/26 00:21:54;;;;;;;9.73;5.80;;;;;;;22.46;71.67;100490.66;2096559;28;20458;-75
2022/08/26 00:23:16;;;;;;;11.38;6.30;;;;;;;22.43;71.90;100494.38;2094688;28;20516;-74
2022/08/26 00:24:38;;;;;;;7.93;5.25;;;;;;;22.43;71.82;100494.38;2094132;28;20059;-75
2022/08/26 00:26:00;;;;;;;12.45;5.53;;;;;;;22.41;71.86;100490.84;2093828;28;20682;-75
2022/08/26 00:27:23;;;;;;;11.02;6.10;;;;;;;22.41;71.79;100489.97;2094836;28;20052;-75
2022/08/26 00:28:44;;;;;;;13.10;6.22;;;;;;;22.43;71.82;100496.19;2094003;28;20208;-75
2022/08/26 00:30:11;;;;;;;9.65;5.75;;;;;;;22.44;71.73;100487.19;2094570;28;20493;-75
2022/08/26 00:31:34;;;;;;;10.50;6.50;;;;;;;22.44;71.80;100485.38;2095496;28;20052;-76
2022/08/26 00:32:58;;;;;;;11.88;5.93;;;;;;;22.44;71.71;100488.06;2102606;28;20147;-76
2022/08/26 00:34:22;;;;;;;10.30;5.00;;;;;;;22.44;71.70;100488.06;2088919;28;20083;-75
2022/08/26 00:35:45;;;;;;;11.13;5.53;;;;;;;22.44;71.77;100489.88;2092083;28;20055;-75
2022/08/26 00:37:09;;;;;;;10.20;6.15;;;;;;;22.40;71.99;100489.09;2094743;28;20536;-75
2022/08/26 00:38:31;;;;;;;9.63;5.78;;;;;;;22.38;72.08;100490.09;2102092;28;20147;-75
2022/08/26 00:39:53;;;;;;;12.05;5.72;;;;;;;22.35;72.13;100487.50;2105650;28;20077;-75
2022/08/26 00:41:18;;;;;;;10.52;5.43;;;;;;;22.34;72.19;100491.13;2102664;28;20475;-75
2022/08/26 00:42:39;;;;;;;14.60;5.57;;;;;;;22.34;72.21;100485.75;2094278;28;20485;-75
2022/08/26 00:44:02;;;;;;;9.75;5.95;;;;;;;22.34;72.16;100492.03;2094437;28;20440;-75
2022/08/26 00:45:24;;;;;;;12.95;6.18;;;;;;;22.34;72.09;100489.31;2094374;28;20135;-75
2022/08/26 00:46:49;;;;;;;12.73;5.82;;;;;;;22.35;72.19;100496.47;2094528;28;20392;-75
2022/08/26 00:48:13;;;;;;;8.00;5.13;;;;;;;22.33;72.17;100492.94;2094923;28;20143;-75
2022/08/26 00:49:43;;;;;;;9.93;6.32;;;;;;;22.34;72.15;100493.81;2094951;28;20845;-75
2022/08/26 00:51:11;;;;;;;10.00;5.22;;;;;;;22.34;72.43;100486.63;2098657;28;20132;-75
2022/08/26 00:52:33;;;;;;;12.57;5.88;;;;;;;22.35;72.11;100490.22;2103628;28;20048;-75
2022/08/26 00:53:59;;;;;;;10.75;6.13;;;;;;;22.35;72.27;100484.81;2100670;28;20486;-75
2022/08/26 00:55:25;;;;;;;10.85;6.32;;;;;;;22.37;72.08;100491.91;2101311;28;20048;-75
2022/08/26 00:56:53;;;;;;;10.07;5.63;;;;;;;22.38;72.16;100484.72;2103149;28;20392;-75
2022/08/26 00:58:16;;;;;;;11.10;5.72;;;;;;;22.37;72.22;100491.03;2103819;28;20838;-75
2022/08/26 00:59:39;;;;;;;10.55;5.70;;;;;;;22.39;72.18;100486.47;2096952;28;20064;-75
2022/08/26 01:01:03;;;;;;;8.75;5.40;;;;;;;22.39;72.15;100487.34;2102983;28;20040;-75
2022/08/26 01:02:24;;;;;;;10.65;6.05;;;;;;;22.40;71.93;100485.53;2096824;28;20044;-75
2022/08/26 01:03:47;;;;;;;13.02;5.88;;;;;;;22.39;71.98;100492.72;2093767;28;20055;-74
2022/08/26 01:05:10;;;;;;;10.20;5.90;;;;;;;22.39;71.93;100487.34;2097071;28;20097;-75
2022/08/26 01:06:33;;;;;;;9.35;6.05;;;;;;;22.38;71.97;100491.00;2103526;28;20048;-75
2022/08/26 01:07:54;;;;;;;10.82;6.30;;;;;;;22.38;72.07;100496.38;2096781;28;20102;-75
2022/08/26 01:09:18;;;;;;;11.77;5.43;;;;;;;22.37;72.29;100489.22;2094386;28;20063;-75
2022/08/26 01:10:39;;;;;;;11.25;5.50;;;;;;;22.35;72.15;100491.09;2094095;28;20195;-75
2022/08/26 01:12:03;;;;;;;9.25;5.72;;;;;;;22.35;72.34;100492.91;2094205;28;20055;-75
2022/08/26 01:13:27;;;;;;;9.27;5.72;;;;;;;22.31;72.43;100494.84;2096908;28;20076;-74
2022/08/26 01:14:49;;;;;;;10.82;5.50;;;;;;;22.31;72.44;100493.97;2094099;28;20049;-75
2022/08/26 01:16:15;;;;;;;9.35;5.43;;;;;;;22.31;72.53;100485.88;2085961;28;20041;-75
2022/08/26 01:17:38;;;;;;;9.70;5.55;;;;;;;22.30;72.52;100492.19;2092351;28;20125;-75
2022/08/26 01:19:17;;;;;;;11.05;5.70;;;;;;;22.30;72.41;100484.13;2094174;28;20091;-75
2022/08/26 01:20:51;;;;;;;11.25;6.40;;;;;;;22.30;72.58;100486.81;2096528;28;20056;-75
2022/08/26 01:22:19;;;;;;;8.85;5.88;;;;;;;22.30;72.59;100489.50;2086956;28;20454;-76
2022/08/26 01:23:48;;;;;;;11.05;5.95;;;;;;;22.30;72.57;100489.50;2092924;28;20048;-75
2022/08/26 01:25:10;;;;;;;8.65;5.85;;;;;;;22.31;72.50;100484.09;2092893;28;20132;-75
2022/08/26 01:26:35;;;;;;;;;;;;;;;22.32;72.32;100496.56;2091896;28;20139;-75
2022/08/26 01:27:59;;;;;;;10.93;5.97;;;;;;;22.33;72.32;100481.31;2100513;28;20423;-75
2022/08/26 01:29:23;;;;;;;8.88;5.45;;;;;;;22.34;72.11;100477.69;2102838;28;20048;-75
2022/08/26 01:30:47;;;;;;;10.75;6.28;;;;;;;22.36;72.05;100483.91;2094115;28;20044;-75
2022/08/26 01:32:10;;;;;;;10.05;6.47;;;;;;;22.36;71.95;100475.81;2094441;28;20049;-76
2022/08/26 01:33:40;;;;;;;11.68;5.85;;;;;;;22.36;71.97;100481.22;2085843;28;20045;-76
2022/08/26 01:35:01;;;;;;;10.55;6.18;;;;;;;22.30;72.23;100476.94;2093481;28;20048;-75
2022/08/26 01:36:24;;;;;;;11.13;6.22;;;;;;;22.26;72.39;100481.53;2096837;28;20048;-75
2022/08/26 01:37:51;;;;;;;8.88;6.18;;;;;;;22.24;72.54;100482.56;2093785;28;20040;-75
2022/08/26 01:39:15;;;;;;;8.75;5.72;;;;;;;22.23;72.69;100478.09;2094463;28;20141;-76
2022/08/26 01:40:39;;;;;;;9.90;5.68;;;;;;;22.23;72.82;100486.16;2095960;28;20052;-75
2022/08/26 01:42:03;;;;;;;10.13;5.70;;;;;;;22.19;72.82;100479.13;2094400;28;20075;-75
2022/08/26 01:43:29;;;;;;;9.40;5.95;;;;;;;22.18;72.86;100480.97;2093906;28;20056;-75
2022/08/26 01:44:56;;;;;;;12.52;5.82;;;;;;;22.17;72.91;100481.91;2094729;28;20044;-75
2022/08/26 01:46:22;;;;;;;11.15;5.85;;;;;;;22.15;72.96;100472.13;2076726;28;20061;-74
2022/08/26 01:47:46;;;;;;;12.40;6.32;;;;;;;22.15;72.94;100475.69;2084092;28;20049;-75
2022/08/26 01:49:10;;;;;;;9.43;5.68;;;;;;;22.15;72.96;100470.31;2092028;28;20056;-75
2022/08/26 01:50:35;;;;;;;10.30;6.43;;;;;;;22.16;72.88;100468.50;2086070;28;20128;-74
2022/08/26 01:51:58;;;;;;;12.63;5.85;;;;;;;22.15;72.84;100473.00;2092193;28;20504;-75
2022/08/26 01:53:23;;;;;;;10.65;6.47;;;;;;;22.16;72.77;100464.00;2094114;28;20063;-74
2022/08/26 01:54:46;;;;;;;14.45;6.72;;;;;;;22.16;72.81;100473.88;2094477;28;20054;-75
2022/08/26 01:56:12;;;;;;;11.23;6.03;;;;;;;22.13;72.85;100471.28;2093895;28;20070;-75
2022/08/26 01:57:35;;;;;;;10.10;5.90;;;;;;;22.10;73.02;100461.53;2097213;28;20121;-75
2022/08/26 01:59:00;;;;;;;11.50;5.78;;;;;;;22.08;73.23;100470.56;2098932;28;20048;-75
2022/08/26 02:00:22;;;;;;;12.35;6.03;;;;;;;22.05;73.29;100468.91;2086100;28;20090;-75
2022/08/26 02:01:44;;;;;;;;;;;;;;;22.06;73.37;100469.75;2091886;28;20036;-75
2022/08/26 02:03:20;;;;;;;11.93;6.63;;;;;;;22.06;73.45;100467.06;2102409;28;20284;-75
2022/08/26 02:04:49;;;;;;;10.77;6.15;;;;;;;22.07;73.41;100463.44;2087939;28;20111;-74
2022/08/26 02:06:11;;;;;;;11.63;5.85;;;;;;;22.06;73.45;100465.25;2093152;28;20516;-75
2022/08/26 02:07:34;;;;;;;10.50;6.43;;;;;;;22.06;73.51;100467.94;2085782;28;20078;-75
2022/08/26 02:09:01;;;;;;;9.45;6.30;;;;;;;22.04;73.41;100464.44;2091200;28;20049;-75
2022/08/26 02:10:24;;;;;;;9.90;5.82;;;;;;;21.99;73.60;100461.03;2101411;28;20127;-75
2022/08/26 02:11:47;;;;;;;12.40;6.10;;;;;;;21.88;73.80;100456.00;2102417;28;20048;-75
2022/08/26 02:13:11;;;;;;;10.43;6.40;;;;;;;21.84;74.07;100461.56;2094025;28;20148;-75
2022/08/26 02:14:36;;;;;;;13.98;6.40;;;;;;;21.82;74.11;100458.03;2099123;28;20069;-76
2022/08/26 02:16:02;;;;;;;13.20;6.50;;;;;;;21.83;74.12;100465.19;2094379;28;20139;-75
2022/08/26 02:17:33;;;;;;;11.13;6.50;;;;;;;21.85;74.10;100469.59;2100403;28;20452;-75
2022/08/26 02:18:56;;;;;;;11.77;6.25;;;;;;;21.86;74.06;100462.38;2103041;28;20412;-75
2022/08/26 02:20:20;;;;;;;12.85;6.50;;;;;;;21.88;74.11;100472.16;2093856;28;20059;-75
2022/08/26 02:21:44;;;;;;;13.63;7.07;;;;;;;21.86;74.09;100465.06;2094142;28;20072;-75
2022/08/26 02:23:08;;;;;;;12.77;6.20;;;;;;;21.88;74.21;100468.56;2093822;28;20048;-75
2022/08/26 02:24:46;;;;;;;10.85;6.13;;;;;;;21.89;74.29;100470.34;2094054;28;20131;-75
2022/08/26 02:26:13;;;;;;;10.73;6.45;;;;;;;21.89;74.44;100470.34;2096311;28;20059;-75
2022/08/26 02:27:34;;;;;;;11.25;6.20;;;;;;;21.90;74.55;100469.41;2102424;28;20089;-75
2022/08/26 02:29:05;;;;;;;11.80;6.28;;;;;;;21.90;74.49;100472.09;2096471;28;20759;-75
2022/08/26 02:30:30;;;;;;;9.05;5.95;;;;;;;21.90;74.62;100473.91;2095070;28;20091;-75
2022/08/26 02:31:54;;;;;;;11.05;6.30;;;;;;;21.87;74.68;100472.19;2085829;28;20053;-75
2022/08/26 02:33:17;;;;;;;12.68;6.97;;;;;;;21.83;74.70;100468.75;2091580;28;20751;-75
2022/08/26 02:34:38;;;;;;;14.65;7.13;;;;;;;21.81;74.79;100475.09;2093525;28;20037;-75
2022/08/26 02:36:01;;;;;;;10.52;6.60;;;;;;;21.77;74.74;100468.09;2093648;28;20044;-75
2022/08/26 02:37:23;;;;;;;11.05;6.70;;;;;;;21.76;74.90;100480.63;2093944;28;20107;-74
2022/08/26 02:38:46;;;;;;;12.65;6.53;;;;;;;21.76;74.73;100485.13;2094538;28;20128;-75
2022/08/26 02:40:10;;;;;;;12.40;6.82;;;;;;;21.73;74.99;100478.03;2092774;28;20451;-74
2022/08/26 02:41:34;;;;;;;10.13;5.97;;;;;;;21.72;75.08;100483.50;2096535;28;20037;-75
2022/08/26 02:42:56;;;;;;;12.63;6.55;;;;;;;21.72;75.33;100488.88;2098385;28;20632;-74
2022/08/26 02:44:18;;;;;;;11.23;6.32;;;;;;;21.75;75.32;100488.75;2096332;28;20053;-75
2022/08/26 02:45:42;;;;;;;10.23;6.50;;;;;;;21.79;75.30;100487.72;2102492;28;20048;-74
2022/08/26 02:47:05;;;;;;;9.85;6.15;;;;;;;21.80;75.26;100482.28;2104922;28;20085;-74
2022/08/26 02:48:28;;;;;;;10.57;5.95;;;;;;;21.81;75.38;100491.22;2101113;28;20063;-75
2022/08/26 02:49:49;;;;;;;12.02;5.82;;;;;;;21.83;75.36;100489.38;2102910;28;20091;-75
2022/08/26 02:51:11;;;;;;;10.60;6.20;;;;;;;21.85;75.49;100492.88;2103956;28;20055;-75
2022/08/26 02:52:33;;;;;;;13.65;6.47;;;;;;;21.88;75.40;100490.06;2094353;28;20053;-75
2022/08/26 02:53:56;;;;;;;11.63;6.18;;;;;;;21.88;75.59;100487.38;2093013;28;20431;-75
2022/08/26 02:55:18;;;;;;;9.65;6.05;;;;;;;21.86;75.60;100494.63;2090378;28;20033;-75
2022/08/26 02:56:43;;;;;;;9.57;5.50;;;;;;;21.88;75.74;100492.75;2097972;28;20105;-75
2022/08/26 02:58:05;;;;;;;10.30;5.95;;;;;;;21.87;75.81;100494.56;2103199;28;20048;-75
2022/08/26 02:59:30;;;;;;;10.63;6.10;;;;;;;21.89;75.92;100494.53;2103765;28;20516;-76
2022/08/26 03:00:52;;;;;;;11.32;5.82;;;;;;;21.89;75.98;100494.53;2095544;28;20119;-75
2022/08/26 03:02:14;;;;;;;14.63;6.30;;;;;;;21.93;76.00;100489.91;2101332;28;20532;-75
2022/08/26 03:03:36;;;;;;;15.77;6.45;;;;;;;21.94;75.96;100491.66;2094940;28;21310;-75
2022/08/26 03:04:58;;;;;;;12.05;6.63;;;;;;;21.96;75.86;100493.41;2089605;28;20510;-74
2022/08/26 03:06:21;;;;;;;10.82;6.20;;;;;;;21.97;75.68;100486.22;2095172;28;20049;-75
2022/08/26 03:07:44;;;;;;;9.57;6.32;;;;;;;21.99;75.59;100492.44;2087076;28;20041;-75
2022/08/26 03:09:07;;;;;;;11.00;6.20;;;;;;;21.96;75.47;100485.34;2092966;28;20091;-75
2022/08/26 03:10:30;;;;;;;10.50;6.38;;;;;;;21.93;75.58;100490.78;2103558;28;20600;-75
2022/08/26 03:11:56;;;;;;;11.77;6.07;;;;;;;21.92;75.79;100493.56;2097934;28;20048;-75
2022/08/26 03:13:19;;;;;;;11.68;5.88;;;;;;;21.86;75.89;100487.44;2087222;28;20064;-74
2022/08/26 03:14:41;;;;;;;12.20;6.50;;;;;;;21.88;75.99;100490.06;2092915;28;20048;-75
2022/08/26 03:16:04;;;;;;;10.05;6.28;;;;;;;21.89;75.99;100497.22;2095292;28;20107;-75
2022/08/26 03:17:26;;;;;;;10.15;5.32;;;;;;;21.90;76.01;100495.41;2094329;28;20139;-75
2022/08/26 03:18:49;;;;;;;9.82;5.93;;;;;;;21.92;75.97;100497.13;2095034;28;20041;-75
2022/08/26 03:20:12;;;;;;;11.73;6.45;;;;;;;21.94;75.83;100497.91;2095205;28;20075;-75
2022/08/26 03:21:33;;;;;;;11.13;5.90;;;;;;;21.95;75.74;100502.38;2094283;28;20413;-75
2022/08/26 03:22:56;;;;;;;8.75;6.03;;;;;;;21.96;75.76;100503.28;2095108;28;20075;-75
2022/08/26 03:24:19;;;;;;;9.68;5.65;;;;;;;21.98;75.60;100501.44;2086597;28;20061;-75
2022/08/26 03:25:41;;;;;;;10.75;6.25;;;;;;;21.98;75.44;100506.81;2092448;28;20519;-75
2022/08/26 03:27:05;;;;;;;12.50;6.22;;;;;;;21.98;75.29;100507.69;2092064;28;20390;-75
2022/08/26 03:28:28;;;;;;;9.77;6.03;;;;;;;21.95;75.27;100507.75;2095066;28;20520;-75
2022/08/26 03:31:29;;;;;;;15.02;6.82;;;;;;;21.90;75.26;100504.34;2097281;28;20052;-75
2022/08/26 03:32:51;;;;;;;11.50;5.93;;;;;;;21.90;75.28;100506.16;2086168;28;20053;-75
2022/08/26 03:34:14;;;;;;;11.73;6.40;;;;;;;21.88;75.34;100504.41;2086788;28;20051;-75
2022/08/26 03:35:39;;;;;;;9.48;5.70;;;;;;;21.89;75.40;100518.72;2087019;28;20105;-75
2022/08/26 03:37:01;;;;;;;11.32;6.32;;;;;;;21.86;75.52;100502.69;2086985;28;20108;-75
2022/08/26 03:38:25;;;;;;;10.20;6.03;;;;;;;21.86;75.53;100498.19;2086314;28;20061;-75
2022/08/26 03:39:46;;;;;;;12.63;6.68;;;;;;;21.85;75.43;100498.28;2092115;28;20079;-75
2022/08/26 03:41:10;;;;;;;9.02;6.13;;;;;;;21.84;75.36;100508.13;2083722;28;20057;-75
2022/08/26 03:42:35;;;;;;;14.02;7.18;;;;;;;21.83;75.33;100508.19;2079981;28;20128;-75
2022/08/26 03:43:58;;;;;;;10.75;6.25;;;;;;;21.81;75.51;100501.97;2086177;28;20543;-76
2022/08/26 03:45:22;;;;;;;15.57;7.43;;;;;;;21.80;75.70;100505.59;2086494;28;20069;-75
2022/08/26 03:46:44;;;;;;;11.93;6.75;;;;;;;21.78;75.62;100504.78;2078532;28;20045;-75
2022/08/26 03:48:07;;;;;;;10.43;6.60;;;;;;;21.76;75.71;100503.94;2084319;28;20140;-75
2022/08/26 03:49:31;;;;;;;12.35;7.45;;;;;;;21.73;75.90;100504.91;2081234;28;20042;-75
2022/08/26 03:50:53;;;;;;;12.82;6.13;;;;;;;21.71;76.00;100504.13;2078300;28;20293;-75
2022/08/26 03:52:14;;;;;;;12.15;7.03;;;;;;;21.71;76.14;100505.91;2075830;28;20049;-75
2022/08/26 03:53:37;;;;;;;13.63;6.63;;;;;;;21.70;76.29;100499.66;2083682;28;20097;-74
2022/08/26 03:54:58;;;;;;;10.32;6.60;;;;;;;21.72;76.40;100505.00;2088228;28;20121;-74
2022/08/26 03:56:21;;;;;;;10.98;6.93;;;;;;;21.73;76.64;100510.28;2094120;28;20539;-75
2022/08/26 03:57:46;;;;;;;11.48;6.85;;;;;;;21.76;76.63;100502.13;2088924;28;20102;-75
2022/08/26 03:59:07;;;;;;;11.65;6.60;;;;;;;21.78;76.78;100504.78;2088153;28;20086;-76
2022/08/26 04:00:30;;;;;;;11.77;6.32;;;;;;;21.84;76.99;100510.81;2086201;28;20131;-75
2022/08/26 04:01:53;;;;;;;10.80;6.78;;;;;;;21.91;77.11;100505.22;2095024;28;20080;-75
2022/08/26 04:03:56;;;;;;;9.63;6.43;;;;;;;21.95;77.32;100512.25;2093685;28;20122;-74
2022/08/26 04:04:57;;;;;;;11.45;6.88;;;;;;;22.01;77.60;100509.38;2096221;28;20126;-75
2022/08/26 04:06:19;;;;;;;9.98;5.95;;;;;;;22.08;77.65;100502.84;2091666;28;20112;-75
2022/08/26 04:07:42;;;;;;;13.05;5.78;;;;;;;22.11;77.82;100511.69;2086429;28;20048;-75
2022/08/26 04:09:07;;;;;;;8.88;5.72;;;;;;;22.16;78.10;100509.72;2084158;28;20075;-75
2022/08/26 04:10:30;;;;;;;11.50;5.82;;;;;;;22.23;77.98;100511.25;2093031;28;20143;-75
2022/08/26 04:11:51;;;;;;;9.68;5.80;;;;;;;22.33;77.95;100513.59;2094602;28;20270;-75
2022/08/26 04:13:15;;;;;;;9.13;5.57;;;;;;;22.40;77.63;100505.25;2094456;28;20052;-75
2022/08/26 04:14:38;;;;;;;9.10;5.85;;;;;;;22.50;77.55;100517.44;2089194;28;20045;-75
2022/08/26 04:16:00;;;;;;;12.07;5.85;;;;;;;22.60;77.38;100505.38;2086455;28;20111;-75
2022/08/26 04:17:24;;;;;;;8.30;5.10;;;;;;;22.72;77.21;100511.22;2081029;28;20498;-75
2022/08/26 04:18:45;;;;;;;10.02;5.40;;;;;;;22.81;77.22;100501.00;2091763;28;20069;-75
2022/08/26 04:20:12;;;;;;;8.50;5.15;;;;;;;22.91;77.24;100505.09;2088692;28;20053;-74
2022/08/26 04:21:39;;;;;;;12.98;5.10;;;;;;;23.02;77.03;100507.38;2087361;28;20075;-75
2022/08/26 04:23:01;;;;;;;9.02;5.43;;;;;;;23.12;76.86;100497.97;2078299;28;20288;-75
2022/08/26 04:24:26;;;;;;;7.72;5.00;;;;;;;23.24;76.42;100507.38;2083762;28;20466;-75
2022/08/26 04:25:48;;;;;;;7.93;4.47;;;;;;;23.33;75.99;100510.59;2094980;28;20040;-75
2022/08/26 04:27:10;;;;;;;7.75;4.57;;;;;;;23.46;75.73;100508.25;2088437;28;20102;-75
2022/08/26 04:28:33;;;;;;;7.70;4.57;;;;;;;23.59;75.51;100500.56;2089411;28;20048;-75
2022/08/26 04:29:56;;;;;;;9.75;4.50;;;;;;;23.68;75.01;100509.16;2086725;28;20120;-76
2022/08/26 04:31:19;;;;;;;9.40;5.15;;;;;;;23.78;74.37;100509.63;2092497;28;20059;-75
2022/08/26 04:32:41;;;;;;;7.70;4.43;;;;;;;23.88;74.19;100504.72;2080278;28;20092;-76
2022/08/26 04:34:04;;;;;;;8.48;4.82;;;;;;;23.99;74.17;100506.00;2086234;28;20061;-75
2022/08/26 04:35:27;;;;;;;9.57;4.45;;;;;;;24.10;73.96;100503.72;2083529;28;20060;-75
2022/08/26 04:36:51;;;;;;;7.60;4.38;;;;;;;24.22;73.44;100505.88;2086595;28;20148;-75
2022/08/26 04:38:13;;;;;;;6.82;3.92;;;;;;;24.36;73.22;100512.50;2094938;28;20037;-76
2022/08/26 04:39:36;;;;;;;8.43;3.75;;;;;;;24.47;72.83;100505.69;2088869;28;20045;-75
2022/08/26 04:40:58;;;;;;;8.55;4.15;;;;;;;24.59;72.54;100510.50;2088739;28;20512;-75
2022/08/26 04:42:21;;;;;;;7.38;4.00;;;;;;;24.70;72.07;100506.41;2088761;28;20497;-76
2022/08/26 04:43:45;;;;;;;6.18;3.88;;;;;;;24.83;72.07;100505.78;2094235;28;20044;-75
2022/08/26 04:45:08;;;;;;;8.50;3.60;;;;;;;24.94;71.65;100508.03;2093712;28;20044;-75
2022/08/26 04:46:31;;;;;;;7.82;3.20;;;;;;;25.08;71.64;100508.22;2086528;28;20086;-75
2022/08/26 04:47:55;;;;;;;9.57;4.10;;;;;;;25.22;71.18;100512.94;2089871;28;20040;-76
2022/08/26 04:49:17;;;;;;;6.53;3.70;;;;;;;25.35;70.66;100506.88;2094608;28;20037;-75
2022/08/26 04:50:39;;;;;;;8.13;3.55;;;;;;;25.46;70.13;100505.47;2097256;28;20051;-75
2022/08/26 04:52:01;;;;;;;9.27;3.60;;;;;;;25.57;69.98;100519.31;2097027;28;20425;-76
2022/08/26 04:53:23;;;;;;;8.55;3.53;;;;;;;25.69;69.91;100516.03;2086177;28;20092;-75
2022/08/26 04:54:45;;;;;;;8.50;3.60;;;;;;;25.81;69.69;100523.50;2086471;28;20044;-76
2022/08/26 04:56:07;;;;;;;5.82;3.65;;;;;;;25.92;68.76;100522.97;2096924;28;20059;-76
2022/08/26 04:57:30;;;;;;;5.38;3.03;;;;;;;26.01;68.51;100525.19;2093096;28;20044;-75
2022/08/26 04:58:55;;;;;;;6.60;3.45;;;;;;;26.12;68.37;100531.78;2094401;28;20102;-75
2022/08/26 05:00:18;;;;;;;5.18;3.30;;;;;;;26.24;68.04;100529.41;2082403;28;20136;-76
2022/08/26 05:01:43;;;;;;;6.40;3.20;;;;;;;26.37;67.69;100525.13;2091889;28;20097;-75
2022/08/26 05:03:06;;;;;;;7.07;3.85;;;;;;;26.49;67.42;100525.34;2084165;28;20452;-75
2022/08/26 05:04:29;;;;;;;7.03;3.60;;;;;;;26.64;67.22;100525.47;2085169;28;20049;-76
2022/08/26 05:05:50;;;;;;;8.38;3.28;;;;;;;26.79;66.53;100527.31;2092148;28;20063;-75
2022/08/26 05:07:13;;;;;;;6.75;3.50;;;;;;;26.91;66.14;100542.97;2090082;28;20048;-76
2022/08/26 05:08:35;;;;;;;7.55;3.58;;;;;;;27.05;65.79;100529.50;2100320;28;20135;-76
2022/08/26 05:09:57;;;;;;;10.60;3.47;;;;;;;27.21;65.28;100537.66;2095881;28;20059;-76
2022/08/26 05:11:20;;;;;;;7.55;3.42;;;;;;;27.34;64.69;100530.56;2094311;28;20068;-75
2022/08/26 05:12:42;;;;;;;6.65;3.30;;;;;;;27.50;64.30;100534.16;2091949;28;20064;-76
2022/08/26 05:14:06;;;;;;;6.75;3.65;;;;;;;27.68;63.89;100529.50;2094853;28;20036;-76
2022/08/26 05:15:29;;;;;;;4.57;3.30;;;;;;;27.85;63.41;100531.22;2088692;28;20107;-76
2022/08/26 05:16:52;;;;;;;6.60;2.97;;;;;;;28.03;63.12;100530.09;2091187;28;20139;-76
2022/08/26 05:18:19;;;;;;;7.28;3.13;;;;;;;28.22;63.01;100533.50;2083483;28;20038;-76
2022/08/26 05:19:41;;;;;;;6.43;2.97;;;;;;;28.39;62.54;100530.63;2092462;28;20539;-76
2022/08/26 05:21:05;;;;;;;6.03;3.28;;;;;;;28.54;61.95;100526.06;2078575;28;20077;-76
2022/08/26 05:22:27;;;;;;;7.05;3.00;;;;;;;28.70;61.21;100528.69;2083619;28;20056;-75
2022/08/26 05:23:53;;;;;;;5.05;2.53;;;;;;;28.82;60.11;100527.94;2094114;28;20041;-75
2022/08/26 05:25:17;;;;;;;8.07;3.20;;;;;;;28.92;59.61;100524.53;2087684;28;20044;-75
2022/08/26 05:26:39;;;;;;;5.80;3.03;;;;;;;29.02;59.33;100532.97;2086264;28;20049;-76
2022/08/26 05:28:02;;;;;;;9.45;3.45;;;;;;;29.11;58.74;100524.22;2093150;28;20127;-75
2022/08/26 05:29:26;;;;;;;5.82;3.35;;;;;;;29.23;58.49;100531.56;2085768;28;20081;-76
2022/08/26 05:30:48;;;;;;;5.35;2.72;;;;;;;29.36;58.53;100530.81;2086458;28;20045;-75
2022/08/26 05:32:11;;;;;;;5.38;3.28;;;;;;;29.49;58.59;100529.88;2093836;28;20534;-75
2022/08/26 05:33:34;;;;;;;5.03;3.10;;;;;;;29.63;58.53;100524.41;2101376;28;20166;-73
2022/08/26 05:34:55;;;;;;;9.18;3.00;;;;;;;29.81;58.22;100529.56;2090387;28;20057;-73
2022/08/26 05:36:19;;;;;;;;;;;;;;;29.90;57.90;100534.41;2089246;28;20048;-73
2022/08/26 05:37:42;;;;;;;7.95;3.25;;;;;;;30.04;57.78;100535.22;2089782;28;20001;-74
2022/08/26 05:39:07;;;;;;;7.75;2.50;;;;;;;30.14;57.40;100531.84;2099116;28;20392;-73
2022/08/26 05:40:30;;;;;;;5.38;2.58;;;;;;;30.21;57.00;100535.91;2100432;28;20044;-73
2022/08/26 05:41:53;;;;;;;7.85;2.70;;;;;;;30.25;56.22;100529.28;2102568;28;20060;-73
2022/08/26 05:43:17;;;;;;;6.55;3.10;;;;;;;30.32;56.24;100536.03;2097311;28;20059;-73
2022/08/26 05:44:41;;;;;;;4.30;2.95;;;;;;;30.46;56.10;100536.78;2090076;28;20157;-73
2022/08/26 05:46:06;;;;;;;6.18;3.13;;;;;;;30.58;56.05;100534.25;2100006;28;20055;-73
2022/08/26 05:47:28;;;;;;;4.63;2.50;;;;;;;30.61;55.29;100534.88;2094636;28;20044;-73
2022/08/26 05:48:50;;;;;;;7.78;2.88;;;;;;;30.62;54.72;100531.19;2098797;28;20044;-73
2022/08/26 05:50:13;;;;;;;5.45;2.97;;;;;;;30.69;54.71;100529.75;2102347;28;20090;-73
2022/08/26 05:51:36;;;;;;;5.35;2.95;;;;;;;30.85;54.32;100535.00;2094889;28;20040;-74
2022/08/26 05:52:59;;;;;;;4.28;2.55;;;;;;;30.95;53.58;100538.78;2093301;28;20036;-73
2022/08/26 05:54:22;;;;;;;6.95;2.78;;;;;;;31.10;52.71;100536.81;2086210;28;20053;-74
2022/08/26 05:55:44;;;;;;;5.20;2.20;;;;;;;31.24;52.21;100531.22;2099566;28;20040;-73
2022/08/26 05:57:07;;;;;;;6.40;1.95;;;;;;;31.34;51.15;100535.00;2101450;28;20044;-73
2022/08/26 05:58:30;;;;;;;4.00;2.50;;;;;;;31.47;50.67;100541.28;2099048;28;20036;-73
2022/08/26 05:59:55;;;;;;;6.80;2.63;;;;;;;31.64;50.23;100532.72;2101080;28;20151;-73
2022/08/26 06:01:19;;;;;;;2.92;1.92;;;;;;;31.75;49.47;100533.78;2088510;28;20064;-72
2022/08/26 06:02:42;;;;;;;4.65;2.30;;;;;;;31.70;48.91;100534.16;2085646;28;20056;-73
2022/08/26 06:04:05;;;;;;;3.70;1.85;;;;;;;31.42;48.58;100537.16;2091380;28;20135;-73
2022/08/26 06:05:28;;;;;;;4.68;2.25;;;;;;;31.03;48.66;100543.69;2100925;28;20508;-73
2022/08/26 06:06:51;;;;;;;2.83;2.10;;;;;;;30.64;48.83;100545.56;2096458;28;20076;-73
2022/08/26 06:08:13;;;;;;;3.88;2.10;;;;;;;30.32;49.46;100536.91;2093579;28;20044;-72
2022/08/26 06:09:37;;;;;;;5.70;2.55;;;;;;;30.10;49.67;100539.38;2096421;28;20052;-72
2022/08/26 06:11:00;;;;;;;4.20;2.60;;;;;;;30.06;50.08;100537.84;2104614;28;20096;-73
2022/08/26 06:12:23;;;;;;;5.85;2.50;;;;;;;30.34;50.45;100534.06;2093337;28;20480;-73
2022/08/26 06:13:47;;;;;;;4.50;2.47;;;;;;;30.74;49.43;100538.47;2097562;28;20488;-73
2022/08/26 06:15:11;;;;;;;5.15;2.35;;;;;;;31.12;48.35;100537.56;2096446;28;20072;-73
2022/08/26 06:16:37;;;;;;;4.30;2.22;;;;;;;31.43;47.92;100534.34;2090762;28;20051;-73
2022/08/26 06:17:58;;;;;;;4.75;2.30;;;;;;;31.72;47.60;100540.34;2096832;28;20732;-73
2022/08/26 06:19:21;;;;;;;3.92;2.40;;;;;;;31.90;47.28;100546.28;2092927;28;20060;-73
2022/08/26 06:20:46;;;;;;;5.28;2.63;;;;;;;32.10;46.57;100533.81;2093643;28;20133;-73
2022/08/26 06:25:39;;;;;;;4.90;2.20;;;;;;;32.65;44.95;100538.53;2104743;28;20055;-73
2022/08/26 06:27:04;;;;;;;4.82;2.08;;;;;;;32.66;44.74;100538.44;2103982;28;20160;-73
2022/08/26 06:28:26;;;;;;;4.75;2.47;;;;;;;32.74;44.53;100537.84;2093586;28;20044;-73
2022/08/26 06:29:50;;;;;;;3.97;2.25;;;;;;;32.87;44.55;100538.59;2092390;28;20040;-72
2022/08/26 06:31:16;;;;;;;3.70;2.00;;;;;;;33.07;44.31;100534.25;2089083;28;20052;-74
2022/08/26 06:32:38;;;;;;;4.18;2.17;;;;;;;33.26;44.15;100534.50;2095490;28;20146;-74